Lena — V2FR — position and weather

sailwx.info

Track history (hours):
 
Tides and Currents Weather Stations Pressure Air Temp Water Temp Dewpoint Dewpoint Depression Visibility Wind Speed Wind Dir Waves Ship Positions

Lena

Last reported at 2015-May-30 20:33 UTC. Time now 2015-May-30 20:43 UTC.
Position N 36°48' E 013°13'.

Length 152 m.

MMSI: 304080808.

Date/timePositionNaut miles runAvg speedWind from/ knotsBaromVisibWave heightAir tempDewpointWater temp
2015-May-30 20:33N 36°48' E 013°13'1918.8
2015-May-30 19:33N 36°43' E 013°36'1818.4
2015-May-30 18:33N 36°38' E 013°58'1918.5
2015-May-30 17:33N 36°33' E 014°20'1818.1
2015-May-30 16:33N 36°30' E 014°42'1818.4
2015-May-30 15:33N 36°31' E 015°05'2018.7
2015-May-30 14:31N 36°31' E 015°29'2117.9
2015-May-30 13:22N 36°30' E 015°55'40716.4
2015-May-29 12:33N 37°44' E 024°17'27616.9
2015-May-28 20:15N 40°53' E 028°37'1318.4
2015-May-28 19:33N 40°56' E 028°54'7 0.5
2015-May-28 05:13N 41°00' E 029°01'1 0.1
2015-May-27 17:20N 40°59' E 028°60'1114.2
2015-May-27 16:33N 40°51' E 028°49'21812.1
2015-May-26 22:30N 37°40' E 026°34'6616.6
2015-May-26 18:30N 36°45' E 027°21'1515.2
2015-May-26 17:30N 36°35' E 027°35'3517.9
2015-May-26 15:33N 36°31' E 028°18'100 2.0
2015-May-24 12:12N 35°19' E 029°44'8618.6
2015-May-24 07:33N 34°02' E 030°31'1919.2
2015-May-24 06:34N 33°45' E 030°41'1918.9
2015-May-24 05:33N 33°27' E 030°50'2619.0
2015-May-24 04:12N 33°04' E 031°04'1918.5
2015-May-24 03:10N 32°47' E 031°14'3018.2
2015-May-24 01:30N 32°20' E 031°30'3618.4
2015-May-23 23:33N 31°50' E 031°52'1818.3
2015-May-23 22:33N 31°37' E 032°08'1817.8
2015-May-23 21:34N 31°24' E 032°22'1311.9
2015-May-23 20:28N 31°11' E 032°20'  
Track history (hours):
 
Tides and Currents Weather Stations Pressure Air Temp Water Temp Dewpoint Dewpoint Depression Visibility Wind Speed Wind Dir Waves Ship Positions

Lena

Last reported at 2015-May-30 20:33 UTC. Time now 2015-May-30 20:43 UTC.
Position N 36°48' E 013°13'.

Length 152 m.

MMSI: 304080808.

Date/timePositionNaut miles runAvg speedWind from/ knotsBaromVisibWave heightAir tempDewpointWater temp
2015-May-30 20:33N 36°48' E 013°13'1918.8
2015-May-30 19:33N 36°43' E 013°36'1818.4
2015-May-30 18:33N 36°38' E 013°58'1918.5
2015-May-30 17:33N 36°33' E 014°20'1818.1
2015-May-30 16:33N 36°30' E 014°42'1818.4
2015-May-30 15:33N 36°31' E 015°05'2018.7
2015-May-30 14:31N 36°31' E 015°29'2117.9
2015-May-30 13:22N 36°30' E 015°55'40716.4
2015-May-29 12:33N 37°44' E 024°17'27616.9
2015-May-28 20:15N 40°53' E 028°37'1318.4
2015-May-28 19:33N 40°56' E 028°54'7 0.5
2015-May-28 05:13N 41°00' E 029°01'1 0.1
2015-May-27 17:20N 40°59' E 028°60'1114.2
2015-May-27 16:33N 40°51' E 028°49'21812.1
2015-May-26 22:30N 37°40' E 026°34'6616.6
2015-May-26 18:30N 36°45' E 027°21'1515.2
2015-May-26 17:30N 36°35' E 027°35'3517.9
2015-May-26 15:33N 36°31' E 028°18'100 2.0
2015-May-24 12:12N 35°19' E 029°44'8618.6
2015-May-24 07:33N 34°02' E 030°31'1919.2
2015-May-24 06:34N 33°45' E 030°41'1918.9
2015-May-24 05:33N 33°27' E 030°50'2619.0
2015-May-24 04:12N 33°04' E 031°04'1918.5
2015-May-24 03:10N 32°47' E 031°14'3018.2
2015-May-24 01:30N 32°20' E 031°30'3618.4
2015-May-23 23:33N 31°50' E 031°52'1818.3
2015-May-23 22:33N 31°37' E 032°08'1817.8
2015-May-23 21:34N 31°24' E 032°22'1311.9
2015-May-23 20:28N 31°11' E 032°20'  

Dump ship's entire track history